Terminal Aerodrome Forecast
Issued by NWS

Home | Current Version | Previous Version | Graphics & Text | Print | Product List | Glossary On
Versions: 1 2 3 4 5 6 7 8 9 10 11 12 13 14 15
000
FTUS43 KGRB 250520
TAFAUW
TAF
KAUW 250520Z 2506/2606 12008KT 5SM -SHRA BR BKN006 OVC010
      WS015/20035KT
     FM251000 14007KT 5SM BR VCSH BKN006 OVC012
     FM251300 18013KT 3SM RA BR BKN008 OVC015
     FM251700 24015G25KT P6SM VCSH BKN020
     FM260000 22008KT P6SM VCSH BKN035=

USA.gov is the U.S. government's official web portal to all federal, state and local government web resources and services.